createdAt,value
2019-04-23T00:00:21.651Z,8.05
2019-04-23T00:05:48.040Z,7.89
2019-04-23T00:11:17.102Z,7.76
2019-04-23T00:16:40.804Z,7.75
2019-04-23T00:22:11.290Z,7.62
2019-04-23T00:33:04.032Z,7.43
2019-04-23T00:43:43.314Z,7.18
2019-04-23T00:54:31.980Z,7.06
2019-04-23T01:05:18.708Z,6.83
2019-04-23T01:11:01.835Z,6.68
2019-04-23T01:16:22.858Z,6.67
2019-04-23T01:21:34.712Z,6.57
2019-04-23T01:27:51.389Z,6.54
2019-04-23T01:33:11.018Z,6.46
2019-04-23T01:43:53.559Z,6.17
2019-04-23T01:49:25.088Z,5.98
2019-04-23T01:54:48.391Z,5.89
2019-04-23T02:05:48.142Z,5.76
2019-04-23T02:16:24.684Z,5.61
2019-04-23T02:21:55.111Z,5.66
2019-04-23T02:27:19.071Z,5.56
2019-04-23T02:33:01.410Z,5.46
2019-04-23T02:38:27.820Z,5.44
2019-04-23T02:43:22.032Z,5.47
2019-04-23T02:49:01.627Z,5.49
2019-04-23T02:54:44.873Z,5.42
2019-04-23T03:00:05.734Z,5.36
2019-04-23T03:10:32.184Z,5.37
2019-04-23T03:22:09.692Z,5.48
2019-04-23T03:38:29.997Z,5.39
2019-04-23T03:43:46.366Z,5.59
2019-04-23T03:49:05.607Z,5.73
2019-04-23T04:05:32.856Z,5.75
2019-04-23T04:11:04.186Z,5.78
2019-04-23T04:21:52.553Z,5.97
2019-04-23T04:32:40.132Z,6.02
2019-04-23T04:38:16.437Z,6.05
2019-04-23T04:43:31.859Z,6.22
2019-04-23T04:48:58.882Z,6.22
2019-04-23T04:54:17.713Z,6.29
2019-04-23T04:59:48.036Z,6.51
2019-04-23T05:05:20.716Z,6.68
2019-04-23T05:10:34.624Z,7.00
2019-04-23T05:21:14.097Z,7.51
2019-04-23T05:26:27.503Z,7.70
2019-04-23T05:31:54.982Z,7.85
2019-04-23T05:37:27.777Z,8.13
2019-04-23T05:42:47.589Z,8.39
2019-04-23T05:48:13.349Z,8.66
2019-04-23T05:53:33.026Z,8.82
2019-04-23T05:58:57.782Z,9.22
2019-04-23T06:04:24.742Z,9.74
2019-04-23T06:09:50.417Z,9.82
2019-04-23T06:15:26.783Z,9.88
2019-04-23T06:20:35.052Z,9.79
2019-04-23T06:26:08.307Z,10.07
2019-04-23T06:31:22.833Z,10.43
2019-04-23T06:36:47.880Z,10.71
2019-04-23T06:42:05.957Z,10.76
2019-04-23T06:47:28.872Z,10.96
2019-04-23T06:52:53.209Z,11.52
2019-04-23T06:58:25.970Z,11.76
2019-04-23T07:03:48.660Z,11.95
2019-04-23T07:14:35.788Z,12.52
2019-04-23T07:20:06.778Z,12.32
2019-04-23T07:25:17.801Z,11.86
2019-04-23T07:30:39.947Z,12.16
2019-04-23T07:36:15.605Z,12.62
2019-04-23T07:47:47.434Z,13.26
2019-04-23T07:53:13.135Z,13.07
2019-04-23T07:58:28.609Z,12.78
2019-04-23T08:03:55.880Z,13.39
2019-04-23T08:09:24.533Z,13.70
2019-04-23T08:14:47.956Z,13.55
2019-04-23T08:20:09.536Z,13.70
2019-04-23T08:25:52.461Z,13.41
2019-04-23T08:31:14.171Z,13.45
2019-04-23T08:36:40.741Z,13.97
2019-04-23T08:42:21.654Z,14.05
2019-04-23T08:47:27.677Z,14.38
2019-04-23T08:52:58.613Z,13.85
2019-04-23T08:58:20.560Z,13.56
2019-04-23T09:09:08.900Z,14.06
2019-04-23T09:14:30.430Z,14.43
2019-04-23T09:20:13.304Z,14.78
2019-04-23T09:25:20.215Z,14.54
2019-04-23T09:30:38.829Z,14.67
2019-04-23T09:36:27.901Z,14.72
2019-04-23T09:41:53.645Z,15.00
2019-04-23T09:47:47.404Z,14.87
2019-04-23T09:58:22.440Z,14.89
2019-04-23T10:03:38.718Z,15.45
2019-04-23T10:08:53.557Z,15.63
2019-04-23T10:14:14.680Z,15.57
2019-04-23T10:19:36.949Z,16.12
2019-04-23T10:24:59.449Z,15.77
2019-04-23T10:30:21.863Z,16.31
2019-04-23T10:35:54.577Z,16.15
2019-04-23T10:41:07.464Z,16.24
2019-04-23T10:47:15.236Z,15.99
2019-04-23T10:52:36.402Z,16.19
2019-04-23T10:58:08.291Z,16.27
2019-04-23T11:09:11.407Z,15.71
2019-04-23T11:14:25.387Z,15.70
2019-04-23T11:20:06.901Z,16.61
2019-04-23T11:25:20.434Z,17.06
2019-04-23T11:36:19.900Z,17.05
2019-04-23T11:41:38.387Z,17.04
2019-04-23T11:46:54.135Z,17.18
2019-04-23T11:57:41.240Z,16.17
2019-04-23T12:03:02.662Z,16.83
2019-04-23T12:30:45.382Z,17.55
2019-04-23T12:36:28.375Z,17.32
2019-04-23T12:47:25.470Z,16.89
2019-04-23T12:52:45.177Z,16.68
2019-04-23T12:57:52.168Z,16.62
2019-04-23T13:03:25.224Z,16.50
2019-04-23T13:08:45.991Z,17.52
2019-04-23T13:14:12.618Z,17.82
2019-04-23T13:25:10.129Z,17.37
2019-04-23T13:30:40.586Z,17.19
2019-04-23T13:41:20.308Z,16.50
2019-04-23T13:46:55.855Z,16.24
2019-04-23T13:52:44.814Z,16.16
2019-04-23T14:03:04.473Z,15.52
2019-04-23T14:08:43.207Z,15.05
2019-04-23T14:14:08.338Z,14.68
2019-04-23T14:19:06.910Z,14.33
2019-04-23T14:24:45.268Z,14.29
2019-04-23T14:30:21.797Z,14.57
2019-04-23T14:35:33.313Z,14.71
2019-04-23T14:40:59.575Z,14.81
2019-04-23T14:51:46.403Z,15.09
2019-04-23T14:57:09.948Z,14.94
2019-04-23T15:02:37.302Z,14.74
2019-04-23T15:07:50.403Z,14.97
2019-04-23T15:13:21.333Z,15.01
2019-04-23T15:24:52.433Z,14.64
2019-04-23T15:29:48.156Z,14.28
2019-04-23T15:40:42.088Z,13.97
2019-04-23T15:46:12.440Z,13.78
2019-04-23T15:51:40.445Z,13.48
2019-04-23T15:57:01.196Z,13.36
2019-04-23T16:01:53.393Z,13.20
2019-04-23T16:07:32.555Z,13.02
2019-04-23T16:13:12.774Z,13.05
2019-04-23T16:24:05.956Z,12.75
2019-04-23T16:35:12.024Z,12.74
2019-04-23T16:40:28.350Z,12.60
2019-04-23T16:45:51.341Z,12.61
2019-04-23T16:51:25.245Z,12.56
2019-04-23T16:56:55.689Z,12.50
2019-04-23T17:02:12.036Z,12.43
2019-04-23T17:07:21.054Z,12.30
2019-04-23T17:12:54.757Z,12.33
2019-04-23T17:18:16.799Z,12.32
2019-04-23T17:29:05.804Z,11.71
2019-04-23T17:34:30.799Z,11.68
2019-04-23T17:40:03.578Z,11.86
2019-04-23T17:45:30.995Z,11.89
2019-04-23T17:50:52.826Z,11.99
2019-04-23T18:01:43.259Z,11.60
2019-04-23T18:07:05.246Z,11.47
2019-04-23T18:17:54.705Z,11.15
2019-04-23T18:23:14.830Z,11.15
2019-04-23T18:28:50.259Z,11.01
2019-04-23T18:34:16.344Z,11.03
2019-04-23T18:39:38.194Z,11.02
2019-04-23T18:45:03.669Z,11.04
2019-04-23T18:50:32.787Z,11.24
2019-04-23T19:01:12.570Z,11.52
2019-04-23T19:06:42.982Z,11.60
2019-04-23T19:18:06.247Z,11.44
2019-04-23T19:28:55.420Z,11.37
2019-04-23T19:34:30.046Z,11.33
2019-04-23T19:39:43.185Z,11.45
2019-04-23T19:45:12.695Z,11.49
2019-04-23T19:50:40.660Z,11.59
2019-04-23T19:56:08.722Z,11.48
2019-04-23T20:07:09.007Z,11.39
2019-04-23T20:12:25.349Z,11.34
2019-04-23T20:23:11.935Z,11.21
2019-04-23T20:39:45.824Z,11.37
2019-04-23T20:45:14.261Z,11.42
2019-04-23T20:56:17.653Z,11.44
2019-04-23T21:02:28.400Z,11.49
2019-04-23T21:07:54.254Z,11.52
2019-04-23T21:18:31.552Z,11.53
2019-04-23T21:29:03.889Z,11.57
2019-04-23T21:34:45.402Z,11.55
2019-04-23T21:40:28.549Z,11.61
2019-04-23T21:45:40.824Z,11.57
2019-04-23T21:50:59.864Z,11.44
2019-04-23T22:01:59.080Z,11.31
2019-04-23T22:07:07.112Z,11.22
2019-04-23T22:12:44.721Z,11.16
2019-04-23T22:18:16.134Z,11.10
2019-04-23T22:23:31.313Z,11.12
2019-04-23T22:28:59.544Z,11.00
2019-04-23T22:39:39.968Z,10.91
2019-04-23T23:01:29.778Z,10.66
2019-04-23T23:06:53.680Z,10.60
2019-04-23T23:12:02.308Z,10.67
2019-04-23T23:17:33.427Z,10.64
2019-04-23T23:33:40.507Z,10.45
2019-04-23T23:39:18.094Z,10.44
2019-04-23T23:50:00.865Z,10.41
2019-04-23T23:55:19.570Z,10.26
